Terminal Aerodrome Forecast
Issued by NWS

Home | Current Version | Previous Version | Text Only | Print | Product List | Glossary On
Versions: 1 2 3 4 5 6 7 8 9 10 11 12 13 14 15 16
000
FTUS46 KSEW 201100
TAFCLM
TAF
KCLM 201120Z 2012/2112 VRB04KT P6SM SCT035 SCT080
     FM201800 VRB04KT P6SM SCT080 SCT120
     FM202000 09004KT P6SM BKN080 BKN120
     FM210300 VRB03KT P6SM FEW080 BKN120=

USA.gov is the U.S. government's official web portal to all federal, state and local government web resources and services.